sensor_id;sensor_type;location;lat;lon;timestamp;P1;durP1;ratioP1;P2;durP2;ratioP2
77170;SDS011;66144;50.020;14.422;2023-04-24T00:02:22;12.63;;;8.32;;
77170;SDS011;66144;50.020;14.422;2023-04-24T00:04:48;10.07;;;6.75;;
77170;SDS011;66144;50.020;14.422;2023-04-24T00:07:13;12.02;;;7.35;;
77170;SDS011;66144;50.020;14.422;2023-04-24T00:09:42;10.68;;;6.50;;
77170;SDS011;66144;50.020;14.422;2023-04-24T00:12:10;11.00;;;6.50;;
77170;SDS011;66144;50.020;14.422;2023-04-24T00:14:35;10.98;;;6.53;;
77170;SDS011;66144;50.020;14.422;2023-04-24T00:17:01;9.55;;;6.03;;
77170;SDS011;66144;50.020;14.422;2023-04-24T00:19:27;11.38;;;7.53;;
77170;SDS011;66144;50.020;14.422;2023-04-24T00:21:53;9.77;;;7.00;;
77170;SDS011;66144;50.020;14.422;2023-04-24T00:24:19;11.07;;;7.38;;
77170;SDS011;66144;50.020;14.422;2023-04-24T00:26:44;11.73;;;7.63;;
77170;SDS011;66144;50.020;14.422;2023-04-24T00:29:10;11.85;;;6.85;;
77170;SDS011;66144;50.020;14.422;2023-04-24T00:31:35;9.70;;;6.57;;
77170;SDS011;66144;50.020;14.422;2023-04-24T00:34:01;10.40;;;6.95;;
77170;SDS011;66144;50.020;14.422;2023-04-24T00:36:27;11.38;;;7.25;;
77170;SDS011;66144;50.020;14.422;2023-04-24T00:38:53;10.02;;;7.18;;
77170;SDS011;66144;50.020;14.422;2023-04-24T00:41:19;9.90;;;6.75;;
77170;SDS011;66144;50.020;14.422;2023-04-24T00:43:44;10.63;;;6.97;;
77170;SDS011;66144;50.020;14.422;2023-04-24T00:46:10;10.32;;;6.90;;
77170;SDS011;66144;50.020;14.422;2023-04-24T00:48:38;10.55;;;6.78;;
77170;SDS011;66144;50.020;14.422;2023-04-24T00:51:04;11.75;;;6.97;;
77170;SDS011;66144;50.020;14.422;2023-04-24T00:53:30;9.60;;;6.45;;
77170;SDS011;66144;50.020;14.422;2023-04-24T00:55:55;10.48;;;7.13;;
77170;SDS011;66144;50.020;14.422;2023-04-24T00:58:21;9.40;;;5.53;;
77170;SDS011;66144;50.020;14.422;2023-04-24T01:00:48;8.90;;;5.63;;
77170;SDS011;66144;50.020;14.422;2023-04-24T01:03:15;8.20;;;5.50;;
77170;SDS011;66144;50.020;14.422;2023-04-24T01:05:41;7.82;;;5.43;;
77170;SDS011;66144;50.020;14.422;2023-04-24T01:08:06;9.07;;;4.95;;
77170;SDS011;66144;50.020;14.422;2023-04-24T01:10:32;8.15;;;4.63;;
77170;SDS011;66144;50.020;14.422;2023-04-24T01:13:00;8.02;;;5.05;;
77170;SDS011;66144;50.020;14.422;2023-04-24T01:15:25;7.70;;;4.53;;
77170;SDS011;66144;50.020;14.422;2023-04-24T01:17:51;7.22;;;4.28;;
77170;SDS011;66144;50.020;14.422;2023-04-24T01:20:17;5.95;;;3.30;;
77170;SDS011;66144;50.020;14.422;2023-04-24T01:22:42;8.57;;;3.95;;
77170;SDS011;66144;50.020;14.422;2023-04-24T01:25:08;5.10;;;3.00;;
77170;SDS011;66144;50.020;14.422;2023-04-24T01:27:33;4.82;;;2.70;;
77170;SDS011;66144;50.020;14.422;2023-04-24T01:29:59;4.28;;;2.40;;
77170;SDS011;66144;50.020;14.422;2023-04-24T01:32:25;5.22;;;3.50;;
77170;SDS011;66144;50.020;14.422;2023-04-24T01:34:50;3.75;;;2.10;;
77170;SDS011;66144;50.020;14.422;2023-04-24T01:37:16;3.88;;;2.15;;
77170;SDS011;66144;50.020;14.422;2023-04-24T01:39:42;4.57;;;2.13;;
77170;SDS011;66144;50.020;14.422;2023-04-24T01:42:08;4.07;;;1.92;;
77170;SDS011;66144;50.020;14.422;2023-04-24T01:44:34;3.08;;;1.80;;
77170;SDS011;66144;50.020;14.422;2023-04-24T01:47:00;3.97;;;2.13;;
77170;SDS011;66144;50.020;14.422;2023-04-24T01:49:26;2.72;;;1.60;;
77170;SDS011;66144;50.020;14.422;2023-04-24T01:51:51;3.20;;;1.58;;
77170;SDS011;66144;50.020;14.422;2023-04-24T01:54:17;2.10;;;1.15;;
77170;SDS011;66144;50.020;14.422;2023-04-24T01:56:42;2.65;;;1.25;;
77170;SDS011;66144;50.020;14.422;2023-04-24T01:59:11;3.45;;;1.60;;
77170;SDS011;66144;50.020;14.422;2023-04-24T02:01:37;2.80;;;1.50;;
77170;SDS011;66144;50.020;14.422;2023-04-24T02:04:04;1.92;;;1.13;;
77170;SDS011;66144;50.020;14.422;2023-04-24T02:06:30;2.97;;;1.30;;
77170;SDS011;66144;50.020;14.422;2023-04-24T02:08:56;3.08;;;1.48;;
77170;SDS011;66144;50.020;14.422;2023-04-24T02:11:23;2.75;;;1.27;;
77170;SDS011;66144;50.020;14.422;2023-04-24T02:13:48;2.65;;;1.30;;
77170;SDS011;66144;50.020;14.422;2023-04-24T02:16:15;2.33;;;1.15;;
77170;SDS011;66144;50.020;14.422;2023-04-24T02:18:40;2.90;;;1.20;;
77170;SDS011;66144;50.020;14.422;2023-04-24T02:21:06;3.50;;;1.60;;
77170;SDS011;66144;50.020;14.422;2023-04-24T02:23:31;2.97;;;1.33;;
77170;SDS011;66144;50.020;14.422;2023-04-24T02:25:57;3.13;;;1.35;;
77170;SDS011;66144;50.020;14.422;2023-04-24T02:28:22;2.38;;;1.30;;
77170;SDS011;66144;50.020;14.422;2023-04-24T02:30:47;3.50;;;1.20;;
77170;SDS011;66144;50.020;14.422;2023-04-24T02:33:13;2.30;;;1.17;;
77170;SDS011;66144;50.020;14.422;2023-04-24T02:35:38;3.83;;;1.35;;
77170;SDS011;66144;50.020;14.422;2023-04-24T02:38:03;3.28;;;1.30;;
77170;SDS011;66144;50.020;14.422;2023-04-24T02:40:29;2.25;;;1.20;;
77170;SDS011;66144;50.020;14.422;2023-04-24T02:42:54;1.88;;;1.00;;
77170;SDS011;66144;50.020;14.422;2023-04-24T02:45:20;3.53;;;1.40;;
77170;SDS011;66144;50.020;14.422;2023-04-24T02:47:45;2.85;;;1.50;;
77170;SDS011;66144;50.020;14.422;2023-04-24T02:50:10;3.08;;;1.50;;
77170;SDS011;66144;50.020;14.422;2023-04-24T02:52:36;2.70;;;1.33;;
77170;SDS011;66144;50.020;14.422;2023-04-24T02:55:01;2.55;;;1.40;;
77170;SDS011;66144;50.020;14.422;2023-04-24T02:57:27;2.95;;;1.33;;
77170;SDS011;66144;50.020;14.422;2023-04-24T02:59:52;4.93;;;1.50;;
77170;SDS011;66144;50.020;14.422;2023-04-24T03:02:17;3.17;;;1.65;;
77170;SDS011;66144;50.020;14.422;2023-04-24T03:04:43;3.58;;;1.60;;
77170;SDS011;66144;50.020;14.422;2023-04-24T03:07:08;2.50;;;1.38;;
77170;SDS011;66144;50.020;14.422;2023-04-24T03:09:33;2.28;;;1.70;;
77170;SDS011;66144;50.020;14.422;2023-04-24T03:11:59;3.00;;;1.35;;
77170;SDS011;66144;50.020;14.422;2023-04-24T03:14:25;2.90;;;1.48;;
77170;SDS011;66144;50.020;14.422;2023-04-24T03:16:50;2.72;;;1.50;;
77170;SDS011;66144;50.020;14.422;2023-04-24T03:19:16;2.85;;;1.70;;
77170;SDS011;66144;50.020;14.422;2023-04-24T03:21:41;3.17;;;1.88;;
77170;SDS011;66144;50.020;14.422;2023-04-24T03:24:10;3.53;;;1.75;;
77170;SDS011;66144;50.020;14.422;2023-04-24T03:26:35;3.03;;;1.65;;
77170;SDS011;66144;50.020;14.422;2023-04-24T03:29:00;3.25;;;1.48;;
77170;SDS011;66144;50.020;14.422;2023-04-24T03:31:26;3.03;;;1.40;;
77170;SDS011;66144;50.020;14.422;2023-04-24T03:33:51;2.97;;;1.65;;
77170;SDS011;66144;50.020;14.422;2023-04-24T03:36:17;3.03;;;1.65;;
77170;SDS011;66144;50.020;14.422;2023-04-24T03:38:44;3.38;;;1.30;;
77170;SDS011;66144;50.020;14.422;2023-04-24T03:41:09;2.95;;;1.80;;
77170;SDS011;66144;50.020;14.422;2023-04-24T03:43:34;2.83;;;1.50;;
77170;SDS011;66144;50.020;14.422;2023-04-24T03:46:00;2.28;;;1.50;;
77170;SDS011;66144;50.020;14.422;2023-04-24T03:48:26;2.58;;;1.27;;
77170;SDS011;66144;50.020;14.422;2023-04-24T03:50:51;2.75;;;1.52;;
77170;SDS011;66144;50.020;14.422;2023-04-24T03:53:16;3.10;;;1.67;;
77170;SDS011;66144;50.020;14.422;2023-04-24T03:55:42;3.25;;;1.50;;
77170;SDS011;66144;50.020;14.422;2023-04-24T03:58:07;3.83;;;1.60;;
77170;SDS011;66144;50.020;14.422;2023-04-24T04:00:33;2.20;;;1.27;;
77170;SDS011;66144;50.020;14.422;2023-04-24T04:02:59;2.20;;;1.50;;
77170;SDS011;66144;50.020;14.422;2023-04-24T04:05:24;3.55;;;1.70;;
77170;SDS011;66144;50.020;14.422;2023-04-24T04:07:50;2.60;;;1.45;;
77170;SDS011;66144;50.020;14.422;2023-04-24T04:10:15;3.60;;;1.90;;
77170;SDS011;66144;50.020;14.422;2023-04-24T04:12:42;5.25;;;1.48;;
77170;SDS011;66144;50.020;14.422;2023-04-24T04:15:07;3.60;;;1.50;;
77170;SDS011;66144;50.020;14.422;2023-04-24T04:17:33;3.42;;;1.48;;
77170;SDS011;66144;50.020;14.422;2023-04-24T04:19:58;4.20;;;2.08;;
77170;SDS011;66144;50.020;14.422;2023-04-24T04:22:23;3.97;;;1.60;;
77170;SDS011;66144;50.020;14.422;2023-04-24T04:24:49;5.72;;;2.00;;
77170;SDS011;66144;50.020;14.422;2023-04-24T04:27:15;3.83;;;1.60;;
77170;SDS011;66144;50.020;14.422;2023-04-24T04:29:41;3.38;;;1.90;;
77170;SDS011;66144;50.020;14.422;2023-04-24T04:32:07;3.05;;;1.60;;
77170;SDS011;66144;50.020;14.422;2023-04-24T04:34:32;4.13;;;1.60;;
77170;SDS011;66144;50.020;14.422;2023-04-24T04:36:58;3.50;;;1.60;;
77170;SDS011;66144;50.020;14.422;2023-04-24T04:39:27;3.90;;;1.83;;
77170;SDS011;66144;50.020;14.422;2023-04-24T04:41:53;4.13;;;1.88;;
77170;SDS011;66144;50.020;14.422;2023-04-24T04:44:19;4.47;;;1.95;;
77170;SDS011;66144;50.020;14.422;2023-04-24T04:46:44;3.53;;;1.77;;
77170;SDS011;66144;50.020;14.422;2023-04-24T04:49:10;4.43;;;1.73;;
77170;SDS011;66144;50.020;14.422;2023-04-24T04:51:35;4.72;;;1.85;;
77170;SDS011;66144;50.020;14.422;2023-04-24T04:54:01;4.82;;;1.77;;
77170;SDS011;66144;50.020;14.422;2023-04-24T04:56:27;3.63;;;1.90;;
77170;SDS011;66144;50.020;14.422;2023-04-24T04:58:52;3.05;;;2.03;;
77170;SDS011;66144;50.020;14.422;2023-04-24T05:01:18;4.57;;;2.45;;
77170;SDS011;66144;50.020;14.422;2023-04-24T05:03:43;4.47;;;2.42;;
77170;SDS011;66144;50.020;14.422;2023-04-24T05:06:09;4.30;;;2.35;;
77170;SDS011;66144;50.020;14.422;2023-04-24T05:08:34;3.50;;;2.20;;
77170;SDS011;66144;50.020;14.422;2023-04-24T05:10:59;4.78;;;2.25;;
77170;SDS011;66144;50.020;14.422;2023-04-24T05:13:25;5.43;;;2.45;;
77170;SDS011;66144;50.020;14.422;2023-04-24T05:15:50;3.78;;;2.40;;
77170;SDS011;66144;50.020;14.422;2023-04-24T05:18:16;4.30;;;2.10;;
77170;SDS011;66144;50.020;14.422;2023-04-24T05:20:41;3.50;;;2.13;;
77170;SDS011;66144;50.020;14.422;2023-04-24T05:23:08;3.15;;;2.00;;
77170;SDS011;66144;50.020;14.422;2023-04-24T05:25:34;6.05;;;2.22;;
77170;SDS011;66144;50.020;14.422;2023-04-24T05:28:00;2.92;;;1.90;;
77170;SDS011;66144;50.020;14.422;2023-04-24T05:30:26;4.20;;;2.10;;
77170;SDS011;66144;50.020;14.422;2023-04-24T05:32:52;6.25;;;2.10;;
77170;SDS011;66144;50.020;14.422;2023-04-24T05:35:17;5.35;;;2.30;;
77170;SDS011;66144;50.020;14.422;2023-04-24T05:37:43;3.38;;;1.95;;
77170;SDS011;66144;50.020;14.422;2023-04-24T05:40:09;4.72;;;2.63;;
77170;SDS011;66144;50.020;14.422;2023-04-24T05:42:35;5.18;;;2.42;;
77170;SDS011;66144;50.020;14.422;2023-04-24T05:45:00;3.70;;;2.03;;
77170;SDS011;66144;50.020;14.422;2023-04-24T05:47:26;3.47;;;2.05;;
77170;SDS011;66144;50.020;14.422;2023-04-24T05:49:51;3.10;;;2.00;;
77170;SDS011;66144;50.020;14.422;2023-04-24T05:52:17;6.80;;;2.40;;
77170;SDS011;66144;50.020;14.422;2023-04-24T05:54:42;3.42;;;2.30;;
77170;SDS011;66144;50.020;14.422;2023-04-24T05:57:08;4.43;;;2.38;;
77170;SDS011;66144;50.020;14.422;2023-04-24T05:59:36;4.28;;;2.63;;
77170;SDS011;66144;50.020;14.422;2023-04-24T06:02:05;5.80;;;1.95;;
77170;SDS011;66144;50.020;14.422;2023-04-24T06:04:32;3.83;;;2.50;;
77170;SDS011;66144;50.020;14.422;2023-04-24T06:06:58;3.95;;;2.00;;
77170;SDS011;66144;50.020;14.422;2023-04-24T06:09:24;3.97;;;2.28;;
77170;SDS011;66144;50.020;14.422;2023-04-24T06:11:49;5.10;;;2.10;;
77170;SDS011;66144;50.020;14.422;2023-04-24T06:14:17;5.38;;;2.08;;
77170;SDS011;66144;50.020;14.422;2023-04-24T06:16:43;5.28;;;2.45;;
77170;SDS011;66144;50.020;14.422;2023-04-24T06:19:08;6.03;;;2.47;;
77170;SDS011;66144;50.020;14.422;2023-04-24T06:21:34;7.78;;;3.38;;
77170;SDS011;66144;50.020;14.422;2023-04-24T06:23:59;5.85;;;2.42;;
77170;SDS011;66144;50.020;14.422;2023-04-24T06:26:25;5.32;;;2.50;;
77170;SDS011;66144;50.020;14.422;2023-04-24T06:28:51;5.40;;;2.80;;
77170;SDS011;66144;50.020;14.422;2023-04-24T06:31:18;4.95;;;2.72;;
77170;SDS011;66144;50.020;14.422;2023-04-24T06:33:45;7.75;;;2.95;;
77170;SDS011;66144;50.020;14.422;2023-04-24T06:36:10;5.60;;;2.88;;
77170;SDS011;66144;50.020;14.422;2023-04-24T06:38:36;7.07;;;2.78;;
77170;SDS011;66144;50.020;14.422;2023-04-24T06:41:02;6.80;;;2.90;;
77170;SDS011;66144;50.020;14.422;2023-04-24T06:43:28;5.95;;;3.35;;
77170;SDS011;66144;50.020;14.422;2023-04-24T06:45:53;6.55;;;3.25;;
77170;SDS011;66144;50.020;14.422;2023-04-24T06:48:19;5.20;;;3.17;;
77170;SDS011;66144;50.020;14.422;2023-04-24T06:50:44;4.53;;;2.83;;
77170;SDS011;66144;50.020;14.422;2023-04-24T06:53:10;6.00;;;3.20;;
77170;SDS011;66144;50.020;14.422;2023-04-24T06:55:37;4.80;;;3.20;;
77170;SDS011;66144;50.020;14.422;2023-04-24T06:58:03;5.07;;;3.22;;
77170;SDS011;66144;50.020;14.422;2023-04-24T07:00:28;5.95;;;3.50;;
77170;SDS011;66144;50.020;14.422;2023-04-24T07:02:54;4.95;;;3.28;;
77170;SDS011;66144;50.020;14.422;2023-04-24T07:05:20;6.03;;;3.45;;
77170;SDS011;66144;50.020;14.422;2023-04-24T07:07:46;4.72;;;3.30;;
77170;SDS011;66144;50.020;14.422;2023-04-24T07:10:12;5.50;;;3.35;;
77170;SDS011;66144;50.020;14.422;2023-04-24T07:12:38;4.97;;;3.42;;
77170;SDS011;66144;50.020;14.422;2023-04-24T07:15:03;5.85;;;3.88;;
77170;SDS011;66144;50.020;14.422;2023-04-24T07:17:30;6.95;;;3.65;;
77170;SDS011;66144;50.020;14.422;2023-04-24T07:19:55;6.95;;;3.95;;
77170;SDS011;66144;50.020;14.422;2023-04-24T07:22:21;7.10;;;4.10;;
77170;SDS011;66144;50.020;14.422;2023-04-24T07:24:46;7.72;;;4.38;;
77170;SDS011;66144;50.020;14.422;2023-04-24T07:27:11;7.25;;;4.30;;
77170;SDS011;66144;50.020;14.422;2023-04-24T07:29:37;5.60;;;3.80;;
77170;SDS011;66144;50.020;14.422;2023-04-24T07:32:03;5.22;;;3.85;;
77170;SDS011;66144;50.020;14.422;2023-04-24T07:34:28;7.03;;;3.88;;
77170;SDS011;66144;50.020;14.422;2023-04-24T07:36:54;8.93;;;4.47;;
77170;SDS011;66144;50.020;14.422;2023-04-24T07:39:20;8.27;;;4.47;;
77170;SDS011;66144;50.020;14.422;2023-04-24T07:41:45;6.05;;;4.18;;
77170;SDS011;66144;50.020;14.422;2023-04-24T07:44:11;5.53;;;3.92;;
77170;SDS011;66144;50.020;14.422;2023-04-24T07:46:36;7.47;;;4.35;;
77170;SDS011;66144;50.020;14.422;2023-04-24T07:49:01;6.20;;;3.88;;
77170;SDS011;66144;50.020;14.422;2023-04-24T07:51:27;5.85;;;3.90;;
77170;SDS011;66144;50.020;14.422;2023-04-24T07:53:53;5.80;;;3.83;;
77170;SDS011;66144;50.020;14.422;2023-04-24T07:56:19;4.30;;;2.90;;
77170;SDS011;66144;50.020;14.422;2023-04-24T07:58:45;7.20;;;3.50;;
77170;SDS011;66144;50.020;14.422;2023-04-24T08:01:11;4.35;;;3.13;;
77170;SDS011;66144;50.020;14.422;2023-04-24T08:03:36;5.53;;;3.20;;
77170;SDS011;66144;50.020;14.422;2023-04-24T08:06:02;6.70;;;3.28;;
77170;SDS011;66144;50.020;14.422;2023-04-24T08:08:27;7.50;;;3.42;;
77170;SDS011;66144;50.020;14.422;2023-04-24T08:10:53;5.88;;;3.53;;
77170;SDS011;66144;50.020;14.422;2023-04-24T08:13:19;5.63;;;3.67;;
77170;SDS011;66144;50.020;14.422;2023-04-24T08:15:45;5.68;;;3.47;;
77170;SDS011;66144;50.020;14.422;2023-04-24T08:18:10;8.98;;;3.60;;
77170;SDS011;66144;50.020;14.422;2023-04-24T08:20:37;5.75;;;3.65;;
77170;SDS011;66144;50.020;14.422;2023-04-24T08:23:02;5.75;;;4.13;;
77170;SDS011;66144;50.020;14.422;2023-04-24T08:25:28;6.57;;;4.18;;
77170;SDS011;66144;50.020;14.422;2023-04-24T08:27:53;7.28;;;4.13;;
77170;SDS011;66144;50.020;14.422;2023-04-24T08:30:19;6.75;;;4.10;;
77170;SDS011;66144;50.020;14.422;2023-04-24T08:32:45;6.50;;;4.28;;
77170;SDS011;66144;50.020;14.422;2023-04-24T08:35:11;6.97;;;4.13;;
77170;SDS011;66144;50.020;14.422;2023-04-24T08:37:36;5.65;;;4.47;;
77170;SDS011;66144;50.020;14.422;2023-04-24T08:40:03;6.47;;;4.40;;
77170;SDS011;66144;50.020;14.422;2023-04-24T08:42:35;7.93;;;4.53;;
77170;SDS011;66144;50.020;14.422;2023-04-24T08:45:02;6.60;;;4.72;;
77170;SDS011;66144;50.020;14.422;2023-04-24T08:47:28;6.88;;;4.88;;
77170;SDS011;66144;50.020;14.422;2023-04-24T08:49:54;6.45;;;4.53;;
77170;SDS011;66144;50.020;14.422;2023-04-24T08:52:20;7.22;;;4.72;;
77170;SDS011;66144;50.020;14.422;2023-04-24T08:54:47;7.32;;;4.50;;
77170;SDS011;66144;50.020;14.422;2023-04-24T08:57:12;8.45;;;4.53;;
77170;SDS011;66144;50.020;14.422;2023-04-24T08:59:39;7.15;;;4.50;;
77170;SDS011;66144;50.020;14.422;2023-04-24T09:02:05;5.05;;;3.65;;
77170;SDS011;66144;50.020;14.422;2023-04-24T09:04:34;5.53;;;3.95;;
77170;SDS011;66144;50.020;14.422;2023-04-24T09:07:00;6.50;;;3.70;;
77170;SDS011;66144;50.020;14.422;2023-04-24T09:09:27;6.75;;;4.30;;
77170;SDS011;66144;50.020;14.422;2023-04-24T09:11:56;4.38;;;2.90;;
77170;SDS011;66144;50.020;14.422;2023-04-24T09:14:23;6.90;;;4.80;;
77170;SDS011;66144;50.020;14.422;2023-04-24T09:16:49;4.88;;;3.20;;
77170;SDS011;66144;50.020;14.422;2023-04-24T09:19:15;4.75;;;3.10;;
77170;SDS011;66144;50.020;14.422;2023-04-24T09:21:40;6.97;;;3.30;;
77170;SDS011;66144;50.020;14.422;2023-04-24T09:24:07;4.97;;;2.78;;
77170;SDS011;66144;50.020;14.422;2023-04-24T09:26:39;4.50;;;2.80;;
77170;SDS011;66144;50.020;14.422;2023-04-24T09:29:05;3.22;;;2.50;;
77170;SDS011;66144;50.020;14.422;2023-04-24T09:31:30;4.05;;;2.72;;
77170;SDS011;66144;50.020;14.422;2023-04-24T09:36:27;4.50;;;2.80;;
77170;SDS011;66144;50.020;14.422;2023-04-24T09:38:57;6.10;;;2.72;;
77170;SDS011;66144;50.020;14.422;2023-04-24T09:41:23;5.88;;;2.72;;
77170;SDS011;66144;50.020;14.422;2023-04-24T09:43:48;3.80;;;2.55;;
77170;SDS011;66144;50.020;14.422;2023-04-24T09:46:13;3.72;;;2.65;;
77170;SDS011;66144;50.020;14.422;2023-04-24T09:48:39;4.00;;;2.60;;
77170;SDS011;66144;50.020;14.422;2023-04-24T09:51:05;4.40;;;2.83;;
77170;SDS011;66144;50.020;14.422;2023-04-24T09:53:36;4.15;;;2.47;;
77170;SDS011;66144;50.020;14.422;2023-04-24T09:56:03;4.13;;;2.20;;
77170;SDS011;66144;50.020;14.422;2023-04-24T09:58:32;4.80;;;2.75;;
77170;SDS011;66144;50.020;14.422;2023-04-24T10:00:57;4.30;;;2.63;;
77170;SDS011;66144;50.020;14.422;2023-04-24T10:03:25;3.63;;;2.30;;
77170;SDS011;66144;50.020;14.422;2023-04-24T10:05:54;4.15;;;2.40;;
77170;SDS011;66144;50.020;14.422;2023-04-24T10:08:24;3.90;;;2.30;;
77170;SDS011;66144;50.020;14.422;2023-04-24T10:10:50;6.35;;;2.65;;
77170;SDS011;66144;50.020;14.422;2023-04-24T10:13:15;4.32;;;2.10;;
77170;SDS011;66144;50.020;14.422;2023-04-24T10:15:41;3.60;;;2.00;;
77170;SDS011;66144;50.020;14.422;2023-04-24T10:18:07;2.75;;;1.90;;
77170;SDS011;66144;50.020;14.422;2023-04-24T10:20:34;2.40;;;1.42;;
77170;SDS011;66144;50.020;14.422;2023-04-24T10:23:01;4.80;;;2.00;;
77170;SDS011;66144;50.020;14.422;2023-04-24T10:25:29;3.78;;;1.90;;
77170;SDS011;66144;50.020;14.422;2023-04-24T10:27:56;3.63;;;2.08;;
77170;SDS011;66144;50.020;14.422;2023-04-24T10:30:24;3.67;;;2.20;;
77170;SDS011;66144;50.020;14.422;2023-04-24T10:32:50;3.83;;;2.42;;
77170;SDS011;66144;50.020;14.422;2023-04-24T10:35:15;3.47;;;2.10;;
77170;SDS011;66144;50.020;14.422;2023-04-24T10:37:47;3.80;;;1.95;;
77170;SDS011;66144;50.020;14.422;2023-04-24T10:40:17;2.55;;;1.38;;
77170;SDS011;66144;50.020;14.422;2023-04-24T10:42:46;2.60;;;1.40;;
77170;SDS011;66144;50.020;14.422;2023-04-24T10:45:22;3.00;;;1.35;;
77170;SDS011;66144;50.020;14.422;2023-04-24T10:48:07;1.90;;;1.30;;
77170;SDS011;66144;50.020;14.422;2023-04-24T10:50:45;2.58;;;1.10;;
77170;SDS011;66144;50.020;14.422;2023-04-24T10:53:34;2.97;;;1.40;;
77170;SDS011;66144;50.020;14.422;2023-04-24T10:56:04;2.03;;;1.08;;
77170;SDS011;66144;50.020;14.422;2023-04-24T10:58:47;2.65;;;1.20;;
77170;SDS011;66144;50.020;14.422;2023-04-24T11:01:23;2.97;;;1.58;;
77170;SDS011;66144;50.020;14.422;2023-04-24T11:03:57;1.60;;;0.95;;
77170;SDS011;66144;50.020;14.422;2023-04-24T11:06:34;1.80;;;1.00;;
77170;SDS011;66144;50.020;14.422;2023-04-24T11:09:05;2.75;;;0.98;;
77170;SDS011;66144;50.020;14.422;2023-04-24T11:11:32;1.88;;;1.15;;
77170;SDS011;66144;50.020;14.422;2023-04-24T11:16:31;2.65;;;1.00;;
77170;SDS011;66144;50.020;14.422;2023-04-24T11:24:24;2.35;;;0.90;;
77170;SDS011;66144;50.020;14.422;2023-04-24T11:27:18;2.00;;;1.02;;
77170;SDS011;66144;50.020;14.422;2023-04-24T11:29:49;1.25;;;0.70;;
77170;SDS011;66144;50.020;14.422;2023-04-24T11:35:13;0.93;;;0.70;;
77170;SDS011;66144;50.020;14.422;2023-04-24T11:37:48;1.65;;;0.90;;
77170;SDS011;66144;50.020;14.422;2023-04-24T11:40:15;1.38;;;0.75;;
77170;SDS011;66144;50.020;14.422;2023-04-24T11:42:44;1.48;;;0.95;;
77170;SDS011;66144;50.020;14.422;2023-04-24T11:45:12;1.13;;;0.70;;
77170;SDS011;66144;50.020;14.422;2023-04-24T11:47:38;1.45;;;0.90;;
77170;SDS011;66144;50.020;14.422;2023-04-24T11:50:05;1.13;;;0.60;;
77170;SDS011;66144;50.020;14.422;2023-04-24T11:52:33;1.70;;;0.90;;
77170;SDS011;66144;50.020;14.422;2023-04-24T11:55:02;1.13;;;0.73;;
77170;SDS011;66144;50.020;14.422;2023-04-24T11:57:28;2.22;;;0.90;;
77170;SDS011;66144;50.020;14.422;2023-04-24T11:59:58;2.10;;;0.90;;
77170;SDS011;66144;50.020;14.422;2023-04-24T12:02:25;2.50;;;1.02;;
77170;SDS011;66144;50.020;14.422;2023-04-24T12:04:55;2.08;;;1.00;;
77170;SDS011;66144;50.020;14.422;2023-04-24T12:07:21;2.80;;;0.80;;
77170;SDS011;66144;50.020;14.422;2023-04-24T12:09:49;2.03;;;0.98;;
77170;SDS011;66144;50.020;14.422;2023-04-24T12:12:20;1.10;;;0.70;;
77170;SDS011;66144;50.020;14.422;2023-04-24T12:15:27;2.13;;;0.93;;
77170;SDS011;66144;50.020;14.422;2023-04-24T12:17:34;3.95;;;1.48;;
77170;SDS011;66144;50.020;14.422;2023-04-24T12:22:47;6.03;;;1.42;;
77170;SDS011;66144;50.020;14.422;2023-04-24T12:25:20;4.75;;;1.27;;
77170;SDS011;66144;50.020;14.422;2023-04-24T12:27:52;5.63;;;1.40;;
77170;SDS011;66144;50.020;14.422;2023-04-24T12:30:43;3.25;;;1.23;;
77170;SDS011;66144;50.020;14.422;2023-04-24T12:33:16;4.47;;;1.02;;
77170;SDS011;66144;50.020;14.422;2023-04-24T12:35:45;5.53;;;1.08;;
77170;SDS011;66144;50.020;14.422;2023-04-24T12:38:12;2.20;;;0.88;;
77170;SDS011;66144;50.020;14.422;2023-04-24T12:40:38;2.40;;;0.80;;
77170;SDS011;66144;50.020;14.422;2023-04-24T12:43:17;1.02;;;0.85;;
77170;SDS011;66144;50.020;14.422;2023-04-24T12:45:44;2.40;;;0.90;;
77170;SDS011;66144;50.020;14.422;2023-04-24T12:48:12;2.33;;;0.90;;
77170;SDS011;66144;50.020;14.422;2023-04-24T12:50:39;2.08;;;0.95;;
77170;SDS011;66144;50.020;14.422;2023-04-24T12:53:04;3.45;;;0.80;;
77170;SDS011;66144;50.020;14.422;2023-04-24T12:55:30;3.55;;;1.00;;
77170;SDS011;66144;50.020;14.422;2023-04-24T12:57:56;1.55;;;0.80;;
77170;SDS011;66144;50.020;14.422;2023-04-24T13:00:21;2.42;;;1.20;;
77170;SDS011;66144;50.020;14.422;2023-04-24T13:02:47;2.28;;;0.80;;
77170;SDS011;66144;50.020;14.422;2023-04-24T13:05:12;2.78;;;1.15;;
77170;SDS011;66144;50.020;14.422;2023-04-24T13:07:38;3.83;;;1.15;;
77170;SDS011;66144;50.020;14.422;2023-04-24T13:10:04;4.15;;;1.17;;
77170;SDS011;66144;50.020;14.422;2023-04-24T13:12:31;3.08;;;1.20;;
77170;SDS011;66144;50.020;14.422;2023-04-24T13:14:57;2.00;;;0.90;;
77170;SDS011;66144;50.020;14.422;2023-04-24T13:17:23;2.30;;;1.10;;
77170;SDS011;66144;50.020;14.422;2023-04-24T13:19:49;2.90;;;1.13;;
77170;SDS011;66144;50.020;14.422;2023-04-24T13:22:16;2.20;;;1.00;;
77170;SDS011;66144;50.020;14.422;2023-04-24T13:24:43;2.00;;;1.20;;
77170;SDS011;66144;50.020;14.422;2023-04-24T13:27:09;2.15;;;1.23;;
77170;SDS011;66144;50.020;14.422;2023-04-24T13:29:35;2.55;;;1.45;;
77170;SDS011;66144;50.020;14.422;2023-04-24T13:32:01;3.65;;;1.40;;
77170;SDS011;66144;50.020;14.422;2023-04-24T13:34:26;2.13;;;1.38;;
77170;SDS011;66144;50.020;14.422;2023-04-24T13:36:53;2.08;;;1.27;;
77170;SDS011;66144;50.020;14.422;2023-04-24T13:39:20;4.32;;;1.75;;
77170;SDS011;66144;50.020;14.422;2023-04-24T13:41:46;2.92;;;1.20;;
77170;SDS011;66144;50.020;14.422;2023-04-24T13:44:14;2.50;;;1.45;;
77170;SDS011;66144;50.020;14.422;2023-04-24T13:46:41;3.35;;;1.30;;
77170;SDS011;66144;50.020;14.422;2023-04-24T13:49:09;2.13;;;1.30;;
77170;SDS011;66144;50.020;14.422;2023-04-24T13:51:34;3.28;;;1.30;;
77170;SDS011;66144;50.020;14.422;2023-04-24T13:54:00;2.53;;;1.30;;
77170;SDS011;66144;50.020;14.422;2023-04-24T13:56:25;2.47;;;1.15;;
77170;SDS011;66144;50.020;14.422;2023-04-24T13:58:51;2.25;;;1.40;;
77170;SDS011;66144;50.020;14.422;2023-04-24T14:01:16;2.45;;;1.20;;
77170;SDS011;66144;50.020;14.422;2023-04-24T14:03:42;1.73;;;0.85;;
77170;SDS011;66144;50.020;14.422;2023-04-24T14:06:10;2.33;;;0.98;;
77170;SDS011;66144;50.020;14.422;2023-04-24T14:08:35;1.25;;;0.80;;
77170;SDS011;66144;50.020;14.422;2023-04-24T14:11:00;2.15;;;0.85;;
77170;SDS011;66144;50.020;14.422;2023-04-24T14:13:26;2.20;;;1.02;;
77170;SDS011;66144;50.020;14.422;2023-04-24T14:15:53;2.10;;;0.90;;
77170;SDS011;66144;50.020;14.422;2023-04-24T14:18:23;2.80;;;1.00;;
77170;SDS011;66144;50.020;14.422;2023-04-24T14:20:58;1.10;;;0.82;;
77170;SDS011;66144;50.020;14.422;2023-04-24T14:23:29;1.17;;;0.80;;
77170;SDS011;66144;50.020;14.422;2023-04-24T14:25:59;1.98;;;1.20;;
77170;SDS011;66144;50.020;14.422;2023-04-24T14:28:26;1.17;;;0.80;;
77170;SDS011;66144;50.020;14.422;2023-04-24T14:30:52;1.00;;;0.70;;
77170;SDS011;66144;50.020;14.422;2023-04-24T14:33:17;1.10;;;0.80;;
77170;SDS011;66144;50.020;14.422;2023-04-24T14:35:43;4.63;;;0.77;;
77170;SDS011;66144;50.020;14.422;2023-04-24T14:38:09;1.42;;;0.80;;
77170;SDS011;66144;50.020;14.422;2023-04-24T14:40:38;1.30;;;1.00;;
77170;SDS011;66144;50.020;14.422;2023-04-24T14:43:05;0.60;;;0.60;;
77170;SDS011;66144;50.020;14.422;2023-04-24T14:45:33;1.15;;;0.90;;
77170;SDS011;66144;50.020;14.422;2023-04-24T14:48:03;2.95;;;0.82;;